createdAt,value
2023-04-28T00:01:47.226Z,101352.47
2023-04-28T00:04:18.970Z,101360.06
2023-04-28T00:06:50.846Z,101348.38
2023-04-28T00:09:22.282Z,101348.84
2023-04-28T00:11:53.738Z,101351.50
2023-04-28T00:14:25.199Z,101339.94
2023-04-28T00:16:56.843Z,101341.94
2023-04-28T00:19:28.422Z,101344.88
2023-04-28T00:21:59.886Z,101337.13
2023-04-28T00:24:31.340Z,101336.81
2023-04-28T00:27:02.973Z,101337.63
2023-04-28T00:29:34.420Z,101338.97
2023-04-28T00:32:05.951Z,101339.28
2023-04-28T00:34:37.497Z,101337.31
2023-04-28T00:37:09.270Z,101329.53
2023-04-28T00:39:40.720Z,101321.47
2023-04-28T00:42:12.521Z,101329.22
2023-04-28T00:44:43.981Z,101331.03
2023-04-28T00:47:15.625Z,101321.78
2023-04-28T00:49:47.080Z,101325.25
2023-04-28T00:52:18.794Z,101317.19
2023-04-28T00:54:50.238Z,101323.28
2023-04-28T00:57:22.042Z,101314.88
2023-04-28T00:59:53.497Z,101306.78
2023-04-28T01:02:25.441Z,101311.72
2023-04-28T01:04:56.977Z,101316.84
2023-04-28T01:07:28.763Z,101307.44
2023-04-28T01:10:00.239Z,101306.63
2023-04-28T01:12:32.095Z,101307.28
2023-04-28T01:15:03.533Z,101304.63
2023-04-28T01:17:35.337Z,101296.72
2023-04-28T01:20:06.872Z,101296.56
2023-04-28T01:22:38.702Z,101295.06
2023-04-28T01:25:10.151Z,101299.03
2023-04-28T01:27:41.888Z,101297.22
2023-04-28T01:30:13.329Z,101300.69
2023-04-28T01:32:45.199Z,101297.22
2023-04-28T01:35:16.644Z,101287.97
2023-04-28T01:37:48.577Z,101292.75
2023-04-28T01:40:20.043Z,101286.81
2023-04-28T01:42:51.499Z,101287.47
2023-04-28T01:45:22.947Z,101288.81
2023-04-28T01:47:54.434Z,101286.16
2023-04-28T01:50:25.876Z,101286.34
2023-04-28T01:52:57.743Z,101285.34
2023-04-28T01:55:29.515Z,101280.56
2023-04-28T01:58:01.625Z,101283.84
2023-04-28T02:00:33.062Z,101281.22
2023-04-28T02:03:04.790Z,101273.47
2023-04-28T02:05:36.333Z,101275.28
2023-04-28T02:08:08.066Z,101270.66
2023-04-28T02:10:39.547Z,101274.94
2023-04-28T02:13:11.382Z,101269.66
2023-04-28T02:15:42.856Z,101274.94
2023-04-28T02:18:14.384Z,101273.13
2023-04-28T02:20:45.844Z,101276.59
2023-04-28T02:23:17.571Z,101274.94
2023-04-28T02:25:49.006Z,101272.13
2023-04-28T02:28:20.780Z,101266.69
2023-04-28T02:30:52.230Z,101266.69
2023-04-28T02:33:23.716Z,101263.06
2023-04-28T02:35:55.157Z,101261.75
2023-04-28T02:38:26.880Z,101262.72
2023-04-28T02:40:58.342Z,101261.56
2023-04-28T02:43:30.078Z,101255.13
2023-04-28T02:46:01.532Z,101255.13
2023-04-28T02:48:33.168Z,101247.22
2023-04-28T02:51:04.613Z,101256.28
2023-04-28T02:53:36.377Z,101250.03
2023-04-28T02:56:07.843Z,101247.38
2023-04-28T02:58:39.613Z,101250.03
2023-04-28T03:01:11.161Z,101251.19
2023-04-28T03:03:43.010Z,101246.91
2023-04-28T03:06:14.623Z,101245.72
2023-04-28T03:08:46.523Z,101243.09
2023-04-28T03:11:17.971Z,101240.28
2023-04-28T03:13:49.449Z,101234.19
2023-04-28T03:16:20.892Z,101241.78
2023-04-28T03:18:52.355Z,101230.41
2023-04-28T03:21:23.798Z,101235.69
2023-04-28T03:23:55.250Z,101234.84
2023-04-28T03:26:26.732Z,101236.66
2023-04-28T03:28:58.194Z,101226.13
2023-04-28T03:31:29.681Z,101229.56
2023-04-28T03:34:01.348Z,101221.00
2023-04-28T03:36:32.812Z,101226.94
2023-04-28T03:39:04.265Z,101225.94
2023-04-28T03:41:35.707Z,101222.16
2023-04-28T03:44:07.578Z,101217.84
2023-04-28T03:46:39.028Z,101222.81
2023-04-28T03:49:10.833Z,101218.50
2023-04-28T03:51:42.674Z,101223.47
2023-04-28T03:54:14.272Z,101220.81
2023-04-28T03:56:46.063Z,101214.22
2023-04-28T03:59:17.544Z,101220.16
2023-04-28T04:01:49.358Z,101218.69
2023-04-28T04:04:21.267Z,101205.78
2023-04-28T04:06:53.124Z,101206.63
2023-04-28T04:09:24.572Z,101200.00
2023-04-28T04:11:56.036Z,101204.63
2023-04-28T04:14:27.478Z,101204.94
2023-04-28T04:16:59.283Z,101204.09
2023-04-28T04:19:30.757Z,101199.59
2023-04-28T04:22:02.402Z,101198.59
2023-04-28T04:24:33.846Z,101198.09
2023-04-28T04:27:05.363Z,101199.09
2023-04-28T04:29:36.823Z,101195.88
2023-04-28T04:32:08.501Z,101191.22
2023-04-28T04:34:39.963Z,101189.38
2023-04-28T04:37:11.467Z,101194.31
2023-04-28T04:39:42.940Z,101192.84
2023-04-28T04:42:24.798Z,101188.19
2023-04-28T04:44:57.101Z,101195.25
2023-04-28T04:47:28.779Z,101194.84
2023-04-28T04:50:00.243Z,101192.97
2023-04-28T04:52:32.186Z,101189.13
2023-04-28T04:55:03.671Z,101192.06
2023-04-28T04:57:35.436Z,101195.13
2023-04-28T05:00:06.917Z,101183.19
2023-04-28T05:02:38.906Z,101185.56
2023-04-28T05:05:20.333Z,101188.25
2023-04-28T05:07:53.070Z,101184.28
2023-04-28T05:10:24.556Z,101173.31
2023-04-28T05:12:56.076Z,101175.44
2023-04-28T05:15:27.548Z,101174.16
2023-04-28T05:17:59.528Z,101168.38
2023-04-28T05:20:31.025Z,101169.75
2023-04-28T05:23:02.833Z,101168.31
2023-04-28T05:25:34.298Z,101169.53
2023-04-28T05:28:05.770Z,101154.00
2023-04-28T05:30:37.255Z,101158.19
2023-04-28T05:33:09.135Z,101157.81
2023-04-28T05:35:40.656Z,101155.84
2023-04-28T05:38:12.170Z,101152.19
2023-04-28T05:40:43.995Z,101151.63
2023-04-28T05:43:15.458Z,101147.13
2023-04-28T05:45:47.286Z,101150.28
2023-04-28T05:48:18.782Z,101144.69
2023-04-28T05:50:50.289Z,101142.84
2023-04-28T05:53:21.746Z,101143.38
2023-04-28T05:55:53.248Z,101140.03
2023-04-28T05:58:24.736Z,101138.47
2023-04-28T06:00:56.224Z,101141.78
2023-04-28T06:03:27.884Z,101140.19
2023-04-28T06:05:59.970Z,101132.88
2023-04-28T06:08:31.436Z,101127.16
2023-04-28T06:11:03.130Z,101125.50
2023-04-28T06:13:34.604Z,101123.84
2023-04-28T06:16:06.434Z,101129.41
2023-04-28T06:18:38.000Z,101129.38
2023-04-28T06:21:09.873Z,101127.16
2023-04-28T06:23:41.329Z,101119.78
2023-04-28T06:26:12.835Z,101119.78
2023-04-28T06:28:44.287Z,101122.25
2023-04-28T06:31:16.112Z,101113.41
2023-04-28T06:33:47.597Z,101109.34
2023-04-28T06:36:19.400Z,101114.84
2023-04-28T06:38:50.867Z,101113.41
2023-04-28T06:41:22.702Z,101107.09
2023-04-28T06:43:54.158Z,101108.09
2023-04-28T06:46:25.996Z,101100.94
2023-04-28T06:48:57.491Z,101099.91
2023-04-28T06:51:29.685Z,101102.94
2023-04-28T06:54:01.373Z,101100.09
2023-04-28T06:56:33.419Z,101103.63
2023-04-28T06:59:04.910Z,101088.84
2023-04-28T07:01:36.874Z,101088.84
2023-04-28T07:04:08.578Z,101084.47
2023-04-28T07:06:40.533Z,101086.47
2023-04-28T07:09:12.009Z,101081.19
2023-04-28T07:11:43.944Z,101076.44
2023-04-28T07:14:15.601Z,101074.16
2023-04-28T07:16:47.470Z,101071.63
2023-04-28T07:19:18.956Z,101068.44
2023-04-28T07:21:50.436Z,101068.72
2023-04-28T07:24:21.924Z,101060.50
2023-04-28T07:26:53.430Z,101054.09
2023-04-28T07:29:24.901Z,101058.97
2023-04-28T07:31:56.456Z,101055.47
2023-04-28T07:34:28.023Z,101048.22
2023-04-28T07:36:59.886Z,101053.78
2023-04-28T07:39:31.390Z,101057.44
2023-04-28T07:42:03.965Z,101047.78
2023-04-28T07:44:35.495Z,101042.44
2023-04-28T07:47:06.977Z,101047.59
2023-04-28T07:49:38.475Z,101040.22
2023-04-28T07:52:09.972Z,101030.94
2023-04-28T07:54:41.440Z,101023.25
2023-04-28T07:57:12.925Z,101026.06
2023-04-28T07:59:44.385Z,101019.66
2023-04-28T08:02:16.287Z,101040.88
2023-04-28T08:04:47.937Z,101024.69
2023-04-28T08:07:19.475Z,101036.56
2023-04-28T08:09:53.233Z,101031.50
2023-04-28T08:12:25.376Z,101030.81
2023-04-28T08:14:56.852Z,101031.41
2023-04-28T08:17:28.430Z,101028.28
2023-04-28T08:19:59.922Z,101021.81
2023-04-28T08:22:31.762Z,101019.41
2023-04-28T08:25:03.224Z,101013.47
2023-04-28T08:27:35.055Z,101022.53
2023-04-28T08:30:06.547Z,101010.09
2023-04-28T08:32:38.501Z,101001.34
2023-04-28T08:35:10.059Z,101006.16
2023-04-28T08:37:41.815Z,101000.91
2023-04-28T08:40:13.279Z,101000.75
2023-04-28T08:42:45.132Z,100994.91
2023-04-28T08:45:16.679Z,101001.97
2023-04-28T08:47:48.499Z,100998.63
2023-04-28T08:50:20.046Z,100991.94
2023-04-28T08:52:51.543Z,100989.78
2023-04-28T08:55:23.009Z,100983.59
2023-04-28T08:57:54.485Z,100985.63
2023-04-28T09:00:26.007Z,100978.13
2023-04-28T09:02:57.998Z,100975.00
2023-04-28T09:05:29.766Z,100968.91
2023-04-28T09:08:01.657Z,100968.22
2023-04-28T09:10:33.155Z,100965.53
2023-04-28T09:13:04.922Z,100958.66
2023-04-28T09:15:36.389Z,100965.97
2023-04-28T09:18:08.103Z,100955.91
2023-04-28T09:20:39.683Z,100953.81
2023-04-28T09:23:11.493Z,100946.34
2023-04-28T09:25:42.970Z,100947.50
2023-04-28T09:28:14.862Z,100953.69
2023-04-28T09:30:46.416Z,100948.31
2023-04-28T09:33:18.267Z,100943.47
2023-04-28T09:35:49.785Z,100934.19
2023-04-28T09:38:21.591Z,100931.19
2023-04-28T09:40:53.183Z,100936.97
2023-04-28T09:43:24.846Z,100934.75
2023-04-28T09:45:56.411Z,100940.84
2023-04-28T09:48:27.936Z,100926.72
2023-04-28T09:50:59.696Z,100926.19
2023-04-28T09:53:31.151Z,100921.66
2023-04-28T09:56:02.939Z,100919.69
2023-04-28T09:58:34.420Z,100914.22
2023-04-28T10:01:06.508Z,100925.59
2023-04-28T10:03:38.143Z,100912.13
2023-04-28T10:06:10.020Z,100911.59
2023-04-28T10:08:41.530Z,100903.75
2023-04-28T10:11:13.408Z,100908.63
2023-04-28T10:13:44.889Z,100905.38
2023-04-28T10:16:16.768Z,100894.56
2023-04-28T10:18:48.248Z,100893.13
2023-04-28T10:21:19.990Z,100890.19
2023-04-28T10:23:51.464Z,100879.88
2023-04-28T10:26:23.270Z,100878.00
2023-04-28T10:28:54.765Z,100883.41
2023-04-28T10:31:26.642Z,100881.66
2023-04-28T10:33:58.269Z,100876.38
2023-04-28T10:36:35.892Z,100872.72
2023-04-28T10:39:08.056Z,100864.41
2023-04-28T10:41:39.891Z,100860.06
2023-04-28T10:44:11.398Z,100861.16
2023-04-28T10:46:42.918Z,100865.78
2023-04-28T10:49:14.442Z,100861.13
2023-04-28T10:51:46.244Z,100855.50
2023-04-28T10:54:17.734Z,100852.72
2023-04-28T10:56:49.476Z,100851.25
2023-04-28T10:59:20.953Z,100842.63
2023-04-28T11:01:52.486Z,100842.31
2023-04-28T11:04:24.142Z,100840.44
2023-04-28T11:06:55.786Z,100838.50
2023-04-28T11:09:28.293Z,100838.94
2023-04-28T11:12:00.263Z,100829.06
2023-04-28T11:14:31.757Z,100833.41
2023-04-28T11:17:03.569Z,100831.28
2023-04-28T11:19:35.075Z,100833.13
2023-04-28T11:22:06.750Z,100831.91
2023-04-28T11:24:38.239Z,100839.53
2023-04-28T11:27:09.891Z,100839.81
2023-04-28T11:29:41.384Z,100831.59
2023-04-28T11:32:13.239Z,100831.00
2023-04-28T11:34:44.715Z,100825.00
2023-04-28T11:37:16.487Z,100818.94
2023-04-28T11:39:48.136Z,100826.94
2023-04-28T11:42:19.645Z,100815.25
2023-04-28T11:44:51.136Z,100817.63
2023-04-28T11:47:22.668Z,100820.03
2023-04-28T11:49:54.153Z,100809.03
2023-04-28T11:52:25.879Z,100810.22
2023-04-28T11:54:57.349Z,100802.09
2023-04-28T11:57:28.852Z,100809.66
2023-04-28T12:00:00.325Z,100801.50
2023-04-28T12:02:32.265Z,100801.59
2023-04-28T12:05:03.822Z,100785.91
2023-04-28T12:07:35.623Z,100795.56
2023-04-28T12:10:07.069Z,100795.59
2023-04-28T12:15:13.021Z,100787.28
2023-04-28T12:17:44.962Z,100782.63
2023-04-28T12:20:16.446Z,100783.91
2023-04-28T12:22:48.195Z,100782.06
2023-04-28T12:25:19.681Z,100778.31
2023-04-28T12:27:51.157Z,100774.78
2023-04-28T12:30:22.618Z,100770.00
2023-04-28T12:32:54.180Z,100769.56
2023-04-28T12:35:25.651Z,100766.06
2023-04-28T12:37:57.118Z,100766.56
2023-04-28T12:40:28.614Z,100770.88
2023-04-28T12:43:00.390Z,100769.38
2023-04-28T12:45:31.845Z,100765.09
2023-04-28T12:48:03.315Z,100760.38
2023-04-28T12:50:34.779Z,100761.56
2023-04-28T12:53:06.573Z,100751.06
2023-04-28T12:55:38.026Z,100744.09
2023-04-28T12:58:09.468Z,100749.75
2023-04-28T13:00:40.939Z,100747.13
2023-04-28T13:03:12.649Z,100747.72
2023-04-28T13:05:44.162Z,100742.16
2023-04-28T13:08:15.966Z,100749.25
2023-04-28T13:10:47.531Z,100737.69
2023-04-28T13:13:19.110Z,100589.44
2023-04-28T13:15:50.724Z,100733.88
2023-04-28T13:18:22.215Z,100729.13
2023-04-28T13:20:53.666Z,100729.69
2023-04-28T13:23:25.107Z,100726.13
2023-04-28T13:25:56.569Z,100722.38
2023-04-28T13:28:28.015Z,100728.56
2023-04-28T13:30:59.838Z,100716.38
2023-04-28T13:33:31.289Z,100714.94
2023-04-28T13:36:03.076Z,100722.81
2023-04-28T13:38:34.562Z,100716.63
2023-04-28T13:41:06.291Z,100716.88
2023-04-28T13:43:37.749Z,100706.66
2023-04-28T13:46:09.449Z,100706.06
2023-04-28T13:48:40.959Z,100705.00
2023-04-28T13:51:12.892Z,100711.50
2023-04-28T13:53:44.338Z,100709.03
2023-04-28T13:56:16.195Z,100715.53
2023-04-28T13:58:47.643Z,100708.41
2023-04-28T14:01:19.149Z,100707.34
2023-04-28T14:03:50.760Z,100703.19
2023-04-28T14:06:22.611Z,100697.38
2023-04-28T14:08:54.194Z,100698.44
2023-04-28T14:11:26.020Z,100689.56
2023-04-28T14:13:57.576Z,100693.31
2023-04-28T14:16:29.248Z,100675.44
2023-04-28T14:19:00.702Z,100681.09
2023-04-28T14:21:32.478Z,100676.25
2023-04-28T14:24:03.990Z,100678.84
2023-04-28T14:26:35.798Z,100680.25
2023-04-28T14:29:07.275Z,100676.75
2023-04-28T14:31:38.991Z,100673.66
2023-04-28T14:34:10.476Z,100671.25
2023-04-28T14:36:42.236Z,100669.38
2023-04-28T14:39:13.705Z,100675.88
2023-04-28T14:41:45.473Z,100669.53
2023-04-28T14:44:16.943Z,100665.72
2023-04-28T14:46:48.671Z,100663.44
2023-04-28T14:49:20.143Z,100663.84
2023-04-28T14:51:51.616Z,100668.09
2023-04-28T14:54:23.082Z,100663.91
2023-04-28T14:56:54.568Z,100662.22
2023-04-28T14:59:26.000Z,100664.88
2023-04-28T15:01:57.539Z,100654.88
2023-04-28T15:04:29.246Z,100650.81
2023-04-28T15:07:01.147Z,100643.72
2023-04-28T15:09:32.607Z,100649.94
2023-04-28T15:12:04.287Z,100650.59
2023-04-28T15:14:35.753Z,100631.25
2023-04-28T15:17:07.507Z,100636.09
2023-04-28T15:19:38.944Z,100637.94
2023-04-28T15:22:10.384Z,100642.25
2023-04-28T15:24:41.814Z,100647.31
2023-04-28T15:27:13.584Z,100640.25
2023-04-28T15:29:45.036Z,100646.47
2023-04-28T15:32:16.506Z,100636.50
2023-04-28T15:34:48.296Z,100644.19
2023-04-28T15:37:20.353Z,100626.16
2023-04-28T15:39:51.799Z,100639.06
2023-04-28T15:42:23.712Z,100620.44
2023-04-28T15:44:55.172Z,100626.00
2023-04-28T15:47:26.629Z,100627.16
2023-04-28T15:49:58.068Z,100624.03
2023-04-28T15:52:29.508Z,100625.88
2023-04-28T15:55:01.004Z,100619.38
2023-04-28T15:57:32.675Z,100620.44
2023-04-28T16:00:04.141Z,100618.09
2023-04-28T16:02:35.977Z,100622.22
2023-04-28T16:05:07.637Z,100619.78
2023-04-28T16:07:39.302Z,100621.53
2023-04-28T16:10:10.750Z,100615.72
2023-04-28T16:12:42.558Z,100617.59
2023-04-28T16:15:14.075Z,100617.44
2023-04-28T16:17:45.907Z,100610.03
2023-04-28T16:20:17.367Z,100598.81
2023-04-28T16:22:49.170Z,100605.84
2023-04-28T16:25:20.608Z,100593.53
2023-04-28T16:27:52.079Z,100594.13
2023-04-28T16:30:23.533Z,100590.84
2023-04-28T16:32:55.028Z,100592.03
2023-04-28T16:35:26.499Z,100597.41
2023-04-28T16:37:58.429Z,100597.16
2023-04-28T16:40:30.155Z,100593.22
2023-04-28T16:43:01.935Z,100598.81
2023-04-28T16:45:33.396Z,100599.75
2023-04-28T16:48:04.923Z,100596.06
2023-04-28T16:50:37.375Z,100592.97
2023-04-28T16:53:10.408Z,100592.97
2023-04-28T16:55:41.873Z,100596.97
2023-04-28T16:58:13.340Z,100593.47
2023-04-28T17:00:44.775Z,100588.03
2023-04-28T17:03:16.670Z,100591.53
2023-04-28T17:05:48.267Z,100594.66
2023-04-28T17:08:20.111Z,100584.78
2023-04-28T17:10:51.549Z,100584.53
2023-04-28T17:13:23.285Z,100583.91
2023-04-28T17:15:54.834Z,100581.16
2023-04-28T17:18:26.521Z,100572.19
2023-04-28T17:20:57.969Z,100576.88
2023-04-28T17:23:29.767Z,100579.00
2023-04-28T17:26:01.235Z,100580.31
2023-04-28T17:28:33.168Z,100577.63
2023-04-28T17:31:04.644Z,100576.72
2023-04-28T17:33:36.481Z,100572.59
2023-04-28T17:36:07.921Z,100568.31
2023-04-28T17:38:39.762Z,100565.78
2023-04-28T17:41:11.256Z,100569.03
2023-04-28T17:43:43.053Z,100564.81
2023-04-28T17:46:14.604Z,100568.72
2023-04-28T17:48:46.483Z,100564.81
2023-04-28T17:51:17.960Z,100558.88
2023-04-28T17:53:49.434Z,100553.13
2023-04-28T17:56:20.871Z,100558.00
2023-04-28T17:58:52.443Z,100558.72
2023-04-28T18:01:24.238Z,100558.16
2023-04-28T18:03:55.702Z,100557.09
2023-04-28T18:06:27.561Z,100562.38
2023-04-28T18:08:59.027Z,100559.53
2023-04-28T18:11:30.868Z,100565.38
2023-04-28T18:14:02.352Z,100563.88
2023-04-28T18:16:33.865Z,100555.53
2023-04-28T18:19:05.356Z,100557.41
2023-04-28T18:21:36.823Z,100557.88
2023-04-28T18:24:08.365Z,100560.31
2023-04-28T18:26:39.880Z,100555.94
2023-04-28T18:29:11.370Z,100559.56
2023-04-28T18:31:42.871Z,100555.72
2023-04-28T18:34:14.370Z,100553.03
2023-04-28T18:36:46.138Z,100555.53
2023-04-28T18:39:17.598Z,100549.63
2023-04-28T18:41:49.119Z,100548.66
2023-04-28T18:44:20.579Z,100549.63
2023-04-28T18:46:52.336Z,100548.81
2023-04-28T18:49:23.808Z,100552.50
2023-04-28T18:51:55.280Z,100543.81
2023-04-28T18:54:26.728Z,100545.91
2023-04-28T18:56:58.631Z,100537.72
2023-04-28T18:59:30.081Z,100541.69
2023-04-28T19:02:01.534Z,100550.84
2023-04-28T19:04:33.091Z,100548.16
2023-04-28T19:07:05.022Z,100543.06
2023-04-28T19:09:36.497Z,100541.44
2023-04-28T19:12:07.968Z,100544.34
2023-04-28T19:14:39.419Z,100536.22
2023-04-28T19:17:11.175Z,100535.75
2023-04-28T19:19:42.739Z,100535.66
2023-04-28T19:22:14.351Z,100536.13
2023-04-28T19:24:45.803Z,100542.53
2023-04-28T19:27:17.577Z,100542.53
2023-04-28T19:29:49.193Z,100537.78
2023-04-28T19:32:21.246Z,100536.47
2023-04-28T19:34:52.747Z,100531.63
2023-04-28T19:37:24.538Z,100536.63
2023-04-28T19:39:55.993Z,100534.66
2023-04-28T19:42:27.923Z,100536.53
2023-04-28T19:44:59.478Z,100535.63
2023-04-28T19:47:30.965Z,100532.22
2023-04-28T19:50:02.427Z,100537.00
2023-04-28T19:52:34.067Z,100541.06
2023-04-28T19:55:05.575Z,100542.44
2023-04-28T19:57:37.040Z,100542.69
2023-04-28T20:00:08.501Z,100549.91
2023-04-28T20:02:40.252Z,100542.31
2023-04-28T20:05:11.802Z,100541.84
2023-04-28T20:07:43.298Z,100540.22
2023-04-28T20:10:14.742Z,100542.78
2023-04-28T20:12:46.207Z,100536.97
2023-04-28T20:15:17.657Z,100538.59
2023-04-28T20:17:49.305Z,100534.63
2023-04-28T20:20:20.804Z,100537.44
2023-04-28T20:22:52.286Z,100535.09
2023-04-28T20:25:23.799Z,100526.00
2023-04-28T20:27:55.262Z,100525.78
2023-04-28T20:30:26.723Z,100355.25
2023-04-28T20:32:58.493Z,100517.09
2023-04-28T20:35:29.996Z,100516.72
2023-04-28T20:38:01.812Z,100500.34
2023-04-28T20:40:33.266Z,100500.00
2023-04-28T20:43:04.740Z,100492.34
2023-04-28T20:45:36.254Z,100490.63
2023-04-28T20:48:07.797Z,100489.97
2023-04-28T20:50:39.282Z,100493.56
2023-04-28T20:53:11.261Z,100499.38
2023-04-28T20:55:42.728Z,100482.88
2023-04-28T20:58:14.250Z,100488.00
2023-04-28T21:00:45.775Z,100483.72
2023-04-28T21:03:17.887Z,100481.97
2023-04-28T21:05:49.483Z,100480.47
2023-04-28T21:08:20.970Z,100486.03
2023-04-28T21:10:52.420Z,100477.44
2023-04-28T21:13:24.218Z,100480.69
2023-04-28T21:15:55.685Z,100479.66
2023-04-28T21:18:27.498Z,100480.31
2023-04-28T21:20:59.030Z,100471.50
2023-04-28T21:23:30.958Z,100466.97
2023-04-28T21:26:02.425Z,100467.78
2023-04-28T21:28:34.221Z,100472.56
2023-04-28T21:31:05.718Z,100465.09
2023-04-28T21:33:37.558Z,100473.59
2023-04-28T21:36:09.046Z,100469.53
2023-04-28T21:38:40.949Z,100459.66
2023-04-28T21:41:12.438Z,100464.19
2023-04-28T21:43:43.973Z,100461.41
2023-04-28T21:46:15.478Z,100462.22
2023-04-28T21:48:47.305Z,100458.97
2023-04-28T21:51:18.754Z,100459.56
2023-04-28T21:53:50.233Z,100456.22
2023-04-28T21:56:21.690Z,100455.53
2023-04-28T21:58:53.149Z,100457.84
2023-04-28T22:01:24.795Z,100457.84
2023-04-28T22:03:56.448Z,100292.50
2023-04-28T22:06:28.332Z,100450.28
2023-04-28T22:08:59.779Z,100446.00
2023-04-28T22:11:31.450Z,100442.06
2023-04-28T22:14:02.915Z,100441.13
2023-04-28T22:16:34.654Z,100434.41
2023-04-28T22:19:06.126Z,100444.50
2023-04-28T22:21:37.979Z,100441.25
2023-04-28T22:24:09.433Z,100447.03
2023-04-28T22:26:41.037Z,100444.94
2023-04-28T22:29:12.483Z,100434.63
2023-04-28T22:31:44.354Z,100436.72
2023-04-28T22:34:15.937Z,100441.69
2023-04-28T22:36:47.441Z,100430.44
2023-04-28T22:39:18.957Z,100422.09
2023-04-28T22:41:50.462Z,100405.00
2023-04-28T22:44:21.922Z,100423.72
2023-04-28T22:46:53.532Z,100422.56
2023-04-28T22:49:25.112Z,100420.00
2023-04-28T22:51:56.582Z,100414.66
2023-04-28T22:54:28.009Z,100417.66
2023-04-28T22:56:59.814Z,100414.06
2023-04-28T22:59:31.280Z,100415.56
2023-04-28T23:02:02.776Z,100410.34
2023-04-28T23:04:34.351Z,100411.63
2023-04-28T23:07:06.464Z,100410.59
2023-04-28T23:09:37.973Z,100405.81
2023-04-28T23:12:09.810Z,100409.31
2023-04-28T23:14:41.268Z,100404.66
2023-04-28T23:17:13.082Z,100403.97
2023-04-28T23:19:44.537Z,100398.16
2023-04-28T23:22:16.214Z,100406.63
2023-04-28T23:24:47.688Z,100402.34
2023-04-28T23:27:19.479Z,100396.06
2023-04-28T23:29:51.248Z,100387.84
2023-04-28T23:32:23.306Z,100387.22
2023-04-28T23:34:54.783Z,100376.91
2023-04-28T23:37:26.561Z,100377.25
2023-04-28T23:39:58.008Z,100375.06
2023-04-28T23:42:29.760Z,100368.66
2023-04-28T23:45:01.205Z,100362.50
2023-04-28T23:47:33.020Z,100362.97
2023-04-28T23:50:04.518Z,100362.97
2023-04-28T23:52:35.965Z,100365.28
2023-04-28T23:55:07.433Z,100359.59
2023-04-28T23:57:39.194Z,100347.78
